sensor_id;sensor_type;location;lat;lon;timestamp;pressure;altitude;pressure_sealevel;temperature;humidity
6615;BME280;3343;42.896;23.912;2022-09-28T00:00:19;95465.16;;;20.65;67.46
6615;BME280;3343;42.896;23.912;2022-09-28T00:02:47;95455.63;;;20.93;65.80
6615;BME280;3343;42.896;23.912;2022-09-28T00:05:14;95448.38;;;19.95;71.55
6615;BME280;3343;42.896;23.912;2022-09-28T00:07:41;95442.47;;;20.57;68.66
6615;BME280;3343;42.896;23.912;2022-09-28T00:10:08;95459.59;;;20.56;68.24
6615;BME280;3343;42.896;23.912;2022-09-28T00:12:36;95450.19;;;20.64;67.42
6615;BME280;3343;42.896;23.912;2022-09-28T00:15:04;95449.97;;;20.99;66.70
6615;BME280;3343;42.896;23.912;2022-09-28T00:17:32;95435.59;;;20.90;65.77
6615;BME280;3343;42.896;23.912;2022-09-28T00:20:02;95446.09;;;20.82;66.38
6615;BME280;3343;42.896;23.912;2022-09-28T00:22:30;95457.88;;;20.21;68.45
6615;BME280;3343;42.896;23.912;2022-09-28T00:24:57;95454.72;;;20.68;66.05
6615;BME280;3343;42.896;23.912;2022-09-28T00:27:24;95448.75;;;20.32;66.51
6615;BME280;3343;42.896;23.912;2022-09-28T00:29:51;95448.47;;;20.39;67.79
6615;BME280;3343;42.896;23.912;2022-09-28T00:32:18;95453.13;;;20.67;65.88
6615;BME280;3343;42.896;23.912;2022-09-28T00:34:49;95454.59;;;20.45;67.48
6615;BME280;3343;42.896;23.912;2022-09-28T00:37:19;95453.50;;;21.29;63.87
6615;BME280;3343;42.896;23.912;2022-09-28T00:39:47;95458.19;;;21.42;63.04
6615;BME280;3343;42.896;23.912;2022-09-28T00:42:15;95454.34;;;21.53;62.86
6615;BME280;3343;42.896;23.912;2022-09-28T00:44:47;95434.25;;;21.27;62.56
6615;BME280;3343;42.896;23.912;2022-09-28T00:47:20;95440.53;;;21.07;62.92
6615;BME280;3343;42.896;23.912;2022-09-28T00:49:53;95442.94;;;21.09;63.75
6615;BME280;3343;42.896;23.912;2022-09-28T00:52:27;95434.63;;;20.71;66.06
6615;BME280;3343;42.896;23.912;2022-09-28T00:54:57;95438.47;;;20.60;65.76
6615;BME280;3343;42.896;23.912;2022-09-28T00:57:26;95434.22;;;18.22;77.06
6615;BME280;3343;42.896;23.912;2022-09-28T00:59:53;95433.50;;;19.58;70.96
6615;BME280;3343;42.896;23.912;2022-09-28T01:02:21;95436.25;;;20.23;68.10
6615;BME280;3343;42.896;23.912;2022-09-28T01:04:48;95441.75;;;20.47;67.30
6615;BME280;3343;42.896;23.912;2022-09-28T01:07:16;95447.88;;;20.91;65.18
6615;BME280;3343;42.896;23.912;2022-09-28T01:09:46;95446.59;;;21.23;63.22
6615;BME280;3343;42.896;23.912;2022-09-28T01:12:13;95447.41;;;21.18;62.69
6615;BME280;3343;42.896;23.912;2022-09-28T01:14:41;95449.31;;;21.47;61.79
6615;BME280;3343;42.896;23.912;2022-09-28T01:17:13;95450.25;;;21.61;60.61
6615;BME280;3343;42.896;23.912;2022-09-28T01:20:05;95452.75;;;20.79;61.96
6615;BME280;3343;42.896;23.912;2022-09-28T01:22:54;95444.16;;;21.26;60.50
6615;BME280;3343;42.896;23.912;2022-09-28T01:25:35;95444.59;;;21.62;59.21
6615;BME280;3343;42.896;23.912;2022-09-28T01:28:07;95452.00;;;21.47;59.90
6615;BME280;3343;42.896;23.912;2022-09-28T01:30:41;95454.84;;;21.55;58.80
6615;BME280;3343;42.896;23.912;2022-09-28T01:33:12;95449.97;;;21.34;59.94
6615;BME280;3343;42.896;23.912;2022-09-28T01:35:42;95440.53;;;20.19;63.12
6615;BME280;3343;42.896;23.912;2022-09-28T01:38:15;95434.09;;;19.09;70.05
6615;BME280;3343;42.896;23.912;2022-09-28T01:40:43;95442.50;;;19.88;65.95
6615;BME280;3343;42.896;23.912;2022-09-28T01:43:15;95425.97;;;20.50;62.97
6615;BME280;3343;42.896;23.912;2022-09-28T01:45:47;95446.06;;;20.87;61.62
6615;BME280;3343;42.896;23.912;2022-09-28T01:48:18;95452.00;;;20.74;62.21
6615;BME280;3343;42.896;23.912;2022-09-28T01:50:52;95441.13;;;20.06;65.75
6615;BME280;3343;42.896;23.912;2022-09-28T01:53:24;95442.84;;;20.41;64.32
6615;BME280;3343;42.896;23.912;2022-09-28T01:55:57;95451.66;;;19.51;68.35
6615;BME280;3343;42.896;23.912;2022-09-28T01:58:31;95454.72;;;20.14;66.37
6615;BME280;3343;42.896;23.912;2022-09-28T02:01:05;95447.13;;;20.42;64.08
6615;BME280;3343;42.896;23.912;2022-09-28T02:03:38;95459.88;;;20.55;64.11
6615;BME280;3343;42.896;23.912;2022-09-28T02:06:12;95466.81;;;21.00;60.67
6615;BME280;3343;42.896;23.912;2022-09-28T02:08:48;95453.19;;;20.96;61.50
6615;BME280;3343;42.896;23.912;2022-09-28T02:11:19;95466.69;;;20.22;64.64
6615;BME280;3343;42.896;23.912;2022-09-28T02:13:49;95465.16;;;20.65;63.30
6615;BME280;3343;42.896;23.912;2022-09-28T02:16:22;95454.38;;;20.31;63.75
6615;BME280;3343;42.896;23.912;2022-09-28T02:18:52;95464.47;;;19.59;66.26
6615;BME280;3343;42.896;23.912;2022-09-28T02:21:22;95471.44;;;20.35;64.01
6615;BME280;3343;42.896;23.912;2022-09-28T02:23:55;95469.34;;;20.76;62.03
6615;BME280;3343;42.896;23.912;2022-09-28T02:26:28;95472.63;;;20.68;61.90
6615;BME280;3343;42.896;23.912;2022-09-28T02:28:57;95470.66;;;20.34;64.20
6615;BME280;3343;42.896;23.912;2022-09-28T02:31:25;95466.59;;;19.01;69.49
6615;BME280;3343;42.896;23.912;2022-09-28T02:33:52;95457.19;;;19.85;65.02
6615;BME280;3343;42.896;23.912;2022-09-28T02:36:20;95470.16;;;20.22;64.28
6615;BME280;3343;42.896;23.912;2022-09-28T02:38:47;95460.34;;;20.08;63.60
6615;BME280;3343;42.896;23.912;2022-09-28T02:41:25;95471.16;;;19.57;65.89
6615;BME280;3343;42.896;23.912;2022-09-28T02:43:59;95461.41;;;20.12;64.99
6615;BME280;3343;42.896;23.912;2022-09-28T02:46:35;95468.97;;;19.79;66.46
6615;BME280;3343;42.896;23.912;2022-09-28T02:49:21;95469.78;;;19.49;69.67
6615;BME280;3343;42.896;23.912;2022-09-28T02:52:05;95468.75;;;19.55;68.12
6615;BME280;3343;42.896;23.912;2022-09-28T02:54:52;95471.97;;;19.22;71.82
6615;BME280;3343;42.896;23.912;2022-09-28T02:57:32;95465.41;;;20.14;67.13
6615;BME280;3343;42.896;23.912;2022-09-28T03:00:06;95455.69;;;19.13;72.47
6615;BME280;3343;42.896;23.912;2022-09-28T03:02:40;95461.59;;;20.25;66.58
6615;BME280;3343;42.896;23.912;2022-09-28T03:05:18;95468.06;;;20.68;63.83
6615;BME280;3343;42.896;23.912;2022-09-28T03:07:53;95465.81;;;20.47;63.79
6615;BME280;3343;42.896;23.912;2022-09-28T03:10:25;95474.81;;;20.61;63.72
6615;BME280;3343;42.896;23.912;2022-09-28T03:12:56;95481.66;;;20.23;65.25
6615;BME280;3343;42.896;23.912;2022-09-28T03:15:26;95476.63;;;20.11;65.50
6615;BME280;3343;42.896;23.912;2022-09-28T03:17:55;95479.97;;;20.47;63.86
6615;BME280;3343;42.896;23.912;2022-09-28T03:20:22;95492.69;;;20.65;63.40
6615;BME280;3343;42.896;23.912;2022-09-28T03:22:49;95493.53;;;20.61;63.02
6615;BME280;3343;42.896;23.912;2022-09-28T03:25:16;95499.88;;;20.70;61.69
6615;BME280;3343;42.896;23.912;2022-09-28T03:27:43;95499.44;;;20.53;62.23
6615;BME280;3343;42.896;23.912;2022-09-28T03:30:11;95490.41;;;20.33;63.53
6615;BME280;3343;42.896;23.912;2022-09-28T03:32:40;95500.81;;;20.94;60.75
6615;BME280;3343;42.896;23.912;2022-09-28T03:35:07;95504.38;;;20.85;60.82
6615;BME280;3343;42.896;23.912;2022-09-28T03:37:35;95491.78;;;20.31;61.97
6615;BME280;3343;42.896;23.912;2022-09-28T03:40:02;95487.06;;;20.02;64.01
6615;BME280;3343;42.896;23.912;2022-09-28T03:42:30;95488.09;;;20.12;63.39
6615;BME280;3343;42.896;23.912;2022-09-28T03:44:56;95492.56;;;20.31;62.26
6615;BME280;3343;42.896;23.912;2022-09-28T03:47:23;95498.53;;;20.73;60.96
6615;BME280;3343;42.896;23.912;2022-09-28T03:49:51;95492.63;;;20.76;60.41
6615;BME280;3343;42.896;23.912;2022-09-28T03:52:18;95498.09;;;20.55;60.65
6615;BME280;3343;42.896;23.912;2022-09-28T03:54:45;95501.84;;;20.54;60.65
6615;BME280;3343;42.896;23.912;2022-09-28T03:57:12;95489.19;;;20.06;61.80
6615;BME280;3343;42.896;23.912;2022-09-28T03:59:39;95494.72;;;20.24;61.78
6615;BME280;3343;42.896;23.912;2022-09-28T04:02:05;95474.63;;;19.17;66.41
6615;BME280;3343;42.896;23.912;2022-09-28T04:04:33;95487.84;;;20.08;62.93
6615;BME280;3343;42.896;23.912;2022-09-28T04:07:01;95490.66;;;20.37;61.41
6615;BME280;3343;42.896;23.912;2022-09-28T04:09:28;95492.97;;;19.94;62.18
6615;BME280;3343;42.896;23.912;2022-09-28T04:11:55;95489.88;;;20.36;59.73
6615;BME280;3343;42.896;23.912;2022-09-28T04:14:22;95489.66;;;20.28;60.53
6615;BME280;3343;42.896;23.912;2022-09-28T04:16:49;95501.22;;;20.03;62.12
6615;BME280;3343;42.896;23.912;2022-09-28T04:19:18;95492.69;;;19.86;62.90
6615;BME280;3343;42.896;23.912;2022-09-28T04:21:46;95490.31;;;19.94;62.84
6615;BME280;3343;42.896;23.912;2022-09-28T04:24:16;95495.94;;;19.42;65.85
6615;BME280;3343;42.896;23.912;2022-09-28T04:26:44;95501.72;;;17.21;77.46
6615;BME280;3343;42.896;23.912;2022-09-28T04:29:11;95496.16;;;18.74;71.94
6615;BME280;3343;42.896;23.912;2022-09-28T04:31:43;95490.38;;;19.28;68.24
6615;BME280;3343;42.896;23.912;2022-09-28T04:34:11;95486.31;;;18.95;69.77
6615;BME280;3343;42.896;23.912;2022-09-28T04:36:39;95495.44;;;19.20;67.87
6615;BME280;3343;42.896;23.912;2022-09-28T04:39:06;95497.56;;;19.33;68.42
6615;BME280;3343;42.896;23.912;2022-09-28T04:41:35;95505.28;;;19.34;69.05
6615;BME280;3343;42.896;23.912;2022-09-28T04:44:02;95499.16;;;19.29;68.31
6615;BME280;3343;42.896;23.912;2022-09-28T04:46:30;95494.91;;;19.07;69.16
6615;BME280;3343;42.896;23.912;2022-09-28T04:48:56;95480.66;;;17.89;75.47
6615;BME280;3343;42.896;23.912;2022-09-28T04:51:23;95485.59;;;17.01;82.43
6615;BME280;3343;42.896;23.912;2022-09-28T04:53:50;95470.38;;;18.12;79.14
6615;BME280;3343;42.896;23.912;2022-09-28T04:56:17;95472.38;;;18.58;75.84
6615;BME280;3343;42.896;23.912;2022-09-28T04:58:46;95490.59;;;18.91;75.86
6615;BME280;3343;42.896;23.912;2022-09-28T05:01:14;95467.66;;;19.05;74.76
6615;BME280;3343;42.896;23.912;2022-09-28T05:03:41;95477.00;;;19.03;75.38
6615;BME280;3343;42.896;23.912;2022-09-28T05:06:11;95476.19;;;18.82;76.56
6615;BME280;3343;42.896;23.912;2022-09-28T05:08:39;95483.16;;;19.54;71.58
6615;BME280;3343;42.896;23.912;2022-09-28T05:11:07;95502.16;;;20.38;68.47
6615;BME280;3343;42.896;23.912;2022-09-28T05:13:39;95497.06;;;20.95;63.15
6615;BME280;3343;42.896;23.912;2022-09-28T05:16:09;95484.75;;;19.20;74.52
6615;BME280;3343;42.896;23.912;2022-09-28T05:18:36;95486.31;;;18.80;76.72
6615;BME280;3343;42.896;23.912;2022-09-28T05:21:06;95477.88;;;20.39;71.00
6615;BME280;3343;42.896;23.912;2022-09-28T05:23:34;95490.06;;;21.39;65.18
6615;BME280;3343;42.896;23.912;2022-09-28T05:26:02;95487.22;;;23.16;61.42
6615;BME280;3343;42.896;23.912;2022-09-28T05:28:30;95493.16;;;23.13;58.91
6615;BME280;3343;42.896;23.912;2022-09-28T05:30:58;95496.47;;;23.42;56.15
6615;BME280;3343;42.896;23.912;2022-09-28T05:33:27;95504.09;;;24.14;56.33
6615;BME280;3343;42.896;23.912;2022-09-28T05:35:55;95501.06;;;24.34;56.54
6615;BME280;3343;42.896;23.912;2022-09-28T05:38:22;95497.63;;;25.42;53.91
6615;BME280;3343;42.896;23.912;2022-09-28T05:40:50;95497.44;;;25.38;52.61
6615;BME280;3343;42.896;23.912;2022-09-28T05:43:17;95504.22;;;26.12;52.32
6615;BME280;3343;42.896;23.912;2022-09-28T05:45:44;95489.78;;;26.47;45.16
6615;BME280;3343;42.896;23.912;2022-09-28T05:48:10;95500.75;;;25.35;50.66
6615;BME280;3343;42.896;23.912;2022-09-28T05:50:39;95502.50;;;26.16;51.93
6615;BME280;3343;42.896;23.912;2022-09-28T05:53:07;95510.59;;;26.16;50.10
6615;BME280;3343;42.896;23.912;2022-09-28T05:55:35;95491.25;;;25.16;49.45
6615;BME280;3343;42.896;23.912;2022-09-28T05:58:04;95495.34;;;25.80;51.80
6615;BME280;3343;42.896;23.912;2022-09-28T06:00:32;95488.88;;;26.86;48.63
6615;BME280;3343;42.896;23.912;2022-09-28T06:03:01;95490.00;;;27.72;43.64
6615;BME280;3343;42.896;23.912;2022-09-28T06:05:29;95489.41;;;26.88;44.64
6615;BME280;3343;42.896;23.912;2022-09-28T06:07:58;95496.69;;;26.88;45.81
6615;BME280;3343;42.896;23.912;2022-09-28T06:10:26;95497.97;;;27.59;43.66
6615;BME280;3343;42.896;23.912;2022-09-28T06:12:54;95508.03;;;27.24;46.43
6615;BME280;3343;42.896;23.912;2022-09-28T06:15:22;95497.66;;;27.44;47.37
6615;BME280;3343;42.896;23.912;2022-09-28T06:17:55;95499.03;;;26.72;47.60
6615;BME280;3343;42.896;23.912;2022-09-28T06:20:22;95504.59;;;26.84;48.14
6615;BME280;3343;42.896;23.912;2022-09-28T06:22:50;95505.31;;;27.42;46.46
6615;BME280;3343;42.896;23.912;2022-09-28T06:25:18;95508.47;;;27.78;46.96
6615;BME280;3343;42.896;23.912;2022-09-28T06:27:53;95522.44;;;28.74;45.14
6615;BME280;3343;42.896;23.912;2022-09-28T06:30:20;95525.41;;;28.51;44.45
6615;BME280;3343;42.896;23.912;2022-09-28T06:32:47;95513.72;;;29.18;43.26
6615;BME280;3343;42.896;23.912;2022-09-28T06:35:29;95516.75;;;29.17;42.09
6615;BME280;3343;42.896;23.912;2022-09-28T06:37:57;95503.91;;;28.55;43.96
6615;BME280;3343;42.896;23.912;2022-09-28T06:40:24;95517.63;;;28.50;44.00
6615;BME280;3343;42.896;23.912;2022-09-28T06:42:57;95528.56;;;29.33;44.31
6615;BME280;3343;42.896;23.912;2022-09-28T06:45:25;95530.56;;;29.66;40.87
6615;BME280;3343;42.896;23.912;2022-09-28T06:47:53;95531.06;;;30.13;40.92
6615;BME280;3343;42.896;23.912;2022-09-28T06:50:21;95534.41;;;30.80;38.86
6615;BME280;3343;42.896;23.912;2022-09-28T06:52:51;95536.75;;;30.32;36.52
6615;BME280;3343;42.896;23.912;2022-09-28T06:55:18;95540.47;;;29.83;38.74
6615;BME280;3343;42.896;23.912;2022-09-28T06:57:45;95543.97;;;30.16;38.25
6615;BME280;3343;42.896;23.912;2022-09-28T07:00:13;95547.53;;;31.02;37.76
6615;BME280;3343;42.896;23.912;2022-09-28T07:02:40;95551.28;;;31.22;35.94
6615;BME280;3343;42.896;23.912;2022-09-28T07:05:08;95547.59;;;31.42;35.94
6615;BME280;3343;42.896;23.912;2022-09-28T07:07:38;95542.59;;;31.44;37.68
6615;BME280;3343;42.896;23.912;2022-09-28T07:10:10;95545.91;;;31.78;36.37
6615;BME280;3343;42.896;23.912;2022-09-28T07:12:37;95542.47;;;31.53;34.04
6615;BME280;3343;42.896;23.912;2022-09-28T07:15:05;95527.50;;;32.03;35.18
6615;BME280;3343;42.896;23.912;2022-09-28T07:17:33;95536.31;;;31.28;33.18
6615;BME280;3343;42.896;23.912;2022-09-28T07:20:00;95531.13;;;30.50;35.97
6615;BME280;3343;42.896;23.912;2022-09-28T07:22:29;95533.44;;;30.15;36.11
6615;BME280;3343;42.896;23.912;2022-09-28T07:24:56;95537.25;;;29.68;37.94
6615;BME280;3343;42.896;23.912;2022-09-28T07:27:24;95537.47;;;30.90;36.17
6615;BME280;3343;42.896;23.912;2022-09-28T07:29:51;95537.44;;;31.02;34.09
6615;BME280;3343;42.896;23.912;2022-09-28T07:32:18;95531.56;;;30.39;34.40
6615;BME280;3343;42.896;23.912;2022-09-28T07:34:45;95537.44;;;31.27;36.24
6615;BME280;3343;42.896;23.912;2022-09-28T07:37:15;95528.50;;;32.10;33.37
6615;BME280;3343;42.896;23.912;2022-09-28T07:39:43;95537.16;;;32.28;31.81
6615;BME280;3343;42.896;23.912;2022-09-28T07:42:29;95535.53;;;31.55;31.76
6615;BME280;3343;42.896;23.912;2022-09-28T07:44:56;95534.75;;;30.54;36.19
6615;BME280;3343;42.896;23.912;2022-09-28T07:47:24;95526.97;;;30.77;35.33
6615;BME280;3343;42.896;23.912;2022-09-28T07:49:52;95528.41;;;31.23;34.67
6615;BME280;3343;42.896;23.912;2022-09-28T07:52:21;95526.25;;;30.92;34.37
6615;BME280;3343;42.896;23.912;2022-09-28T07:54:51;95526.69;;;31.06;32.80
6615;BME280;3343;42.896;23.912;2022-09-28T07:57:19;95524.91;;;31.50;35.93
6615;BME280;3343;42.896;23.912;2022-09-28T07:59:47;95519.94;;;32.24;34.09
6615;BME280;3343;42.896;23.912;2022-09-28T08:02:15;95514.00;;;32.06;31.53
6615;BME280;3343;42.896;23.912;2022-09-28T08:04:44;95500.97;;;31.56;32.73
6615;BME280;3343;42.896;23.912;2022-09-28T08:07:12;95526.94;;;32.88;32.83
6615;BME280;3343;42.896;23.912;2022-09-28T08:09:40;95521.41;;;32.21;30.58
6615;BME280;3343;42.896;23.912;2022-09-28T08:12:07;95523.00;;;32.85;31.73
6615;BME280;3343;42.896;23.912;2022-09-28T08:14:34;95519.47;;;32.69;31.80
6615;BME280;3343;42.896;23.912;2022-09-28T08:17:04;95523.78;;;33.95;29.62
6615;BME280;3343;42.896;23.912;2022-09-28T08:19:31;95519.53;;;33.97;29.23
6615;BME280;3343;42.896;23.912;2022-09-28T08:22:12;95510.94;;;33.21;29.81
6615;BME280;3343;42.896;23.912;2022-09-28T08:24:39;95517.75;;;33.12;29.16
6615;BME280;3343;42.896;23.912;2022-09-28T08:27:06;95522.22;;;33.20;30.76
6615;BME280;3343;42.896;23.912;2022-09-28T08:29:35;95516.47;;;33.25;30.02
6615;BME280;3343;42.896;23.912;2022-09-28T08:32:03;95527.13;;;34.30;31.61
6615;BME280;3343;42.896;23.912;2022-09-28T08:34:32;95520.84;;;33.84;29.55
6615;BME280;3343;42.896;23.912;2022-09-28T08:36:59;95528.59;;;34.47;29.75
6615;BME280;3343;42.896;23.912;2022-09-28T08:39:26;95528.41;;;34.59;30.06
6615;BME280;3343;42.896;23.912;2022-09-28T08:42:04;95534.25;;;34.35;27.77
6615;BME280;3343;42.896;23.912;2022-09-28T08:44:38;95526.63;;;34.25;29.85
6615;BME280;3343;42.896;23.912;2022-09-28T08:47:13;95536.06;;;34.73;29.24
6615;BME280;3343;42.896;23.912;2022-09-28T08:50:04;95530.22;;;34.97;28.50
6615;BME280;3343;42.896;23.912;2022-09-28T08:52:37;95535.59;;;34.44;26.90
6615;BME280;3343;42.896;23.912;2022-09-28T08:55:10;95523.97;;;34.28;27.64
6615;BME280;3343;42.896;23.912;2022-09-28T08:57:43;95530.44;;;34.39;27.20
6615;BME280;3343;42.896;23.912;2022-09-28T09:00:19;95524.53;;;34.83;26.06
6615;BME280;3343;42.896;23.912;2022-09-28T09:02:48;95538.38;;;35.24;26.61
6615;BME280;3343;42.896;23.912;2022-09-28T09:05:18;95536.72;;;35.16;25.05
6615;BME280;3343;42.896;23.912;2022-09-28T09:08:01;95526.00;;;35.93;25.21
6615;BME280;3343;42.896;23.912;2022-09-28T09:10:43;95531.53;;;36.37;25.69
6615;BME280;3343;42.896;23.912;2022-09-28T09:13:34;95532.31;;;35.97;23.91
6615;BME280;3343;42.896;23.912;2022-09-28T09:16:11;95527.84;;;34.04;26.20
6615;BME280;3343;42.896;23.912;2022-09-28T09:18:47;95528.66;;;33.47;26.52
6615;BME280;3343;42.896;23.912;2022-09-28T09:21:32;95530.53;;;33.08;26.45
6615;BME280;3343;42.896;23.912;2022-09-28T09:24:11;95518.31;;;32.86;29.29
6615;BME280;3343;42.896;23.912;2022-09-28T09:26:42;95522.78;;;32.94;28.70
6615;BME280;3343;42.896;23.912;2022-09-28T09:29:23;95510.63;;;32.25;28.79
6615;BME280;3343;42.896;23.912;2022-09-28T09:32:12;95515.72;;;32.58;29.17
6615;BME280;3343;42.896;23.912;2022-09-28T09:37:45;95527.81;;;34.46;25.97
6615;BME280;3343;42.896;23.912;2022-09-28T09:40:41;95515.09;;;34.80;26.39
6615;BME280;3343;42.896;23.912;2022-09-28T09:43:31;95528.94;;;34.91;25.82
6615;BME280;3343;42.896;23.912;2022-09-28T09:46:10;95525.28;;;35.36;25.12
6615;BME280;3343;42.896;23.912;2022-09-28T09:48:46;95532.88;;;35.20;23.92
6615;BME280;3343;42.896;23.912;2022-09-28T09:51:21;95529.91;;;35.59;25.18
6615;BME280;3343;42.896;23.912;2022-09-28T09:53:53;95533.47;;;35.63;22.97
6615;BME280;3343;42.896;23.912;2022-09-28T09:56:29;95525.84;;;34.93;23.08
6615;BME280;3343;42.896;23.912;2022-09-28T09:59:04;95522.81;;;33.48;24.92
6615;BME280;3343;42.896;23.912;2022-09-28T10:01:34;95515.16;;;34.15;25.29
6615;BME280;3343;42.896;23.912;2022-09-28T10:04:06;95509.91;;;33.45;24.20
6615;BME280;3343;42.896;23.912;2022-09-28T10:06:41;95504.81;;;33.44;24.63
6615;BME280;3343;42.896;23.912;2022-09-28T10:09:13;95520.84;;;33.10;26.50
6615;BME280;3343;42.896;23.912;2022-09-28T10:11:43;95510.50;;;34.16;23.83
6615;BME280;3343;42.896;23.912;2022-09-28T10:14:15;95508.78;;;34.76;24.22
6615;BME280;3343;42.896;23.912;2022-09-28T10:16:45;95513.03;;;34.05;24.70
6615;BME280;3343;42.896;23.912;2022-09-28T10:19:14;95517.44;;;35.05;23.97
6615;BME280;3343;42.896;23.912;2022-09-28T10:21:45;95505.63;;;34.74;23.41
6615;BME280;3343;42.896;23.912;2022-09-28T10:24:19;95513.91;;;35.04;22.91
6615;BME280;3343;42.896;23.912;2022-09-28T10:26:52;95505.16;;;35.82;21.97
6615;BME280;3343;42.896;23.912;2022-09-28T10:29:21;95515.47;;;35.62;23.94
6615;BME280;3343;42.896;23.912;2022-09-28T10:31:50;95517.09;;;35.36;22.53
6615;BME280;3343;42.896;23.912;2022-09-28T10:34:24;95512.22;;;34.47;21.35
6615;BME280;3343;42.896;23.912;2022-09-28T10:36:55;95516.00;;;35.15;23.31
6615;BME280;3343;42.896;23.912;2022-09-28T10:39:31;95518.72;;;35.74;21.41
6615;BME280;3343;42.896;23.912;2022-09-28T10:42:01;95511.19;;;35.34;20.92
6615;BME280;3343;42.896;23.912;2022-09-28T10:44:31;95510.34;;;35.90;22.04
6615;BME280;3343;42.896;23.912;2022-09-28T10:47:00;95506.06;;;35.93;22.57
6615;BME280;3343;42.896;23.912;2022-09-28T10:49:39;95497.91;;;36.00;22.70
6615;BME280;3343;42.896;23.912;2022-09-28T10:52:29;95490.91;;;36.06;20.85
6615;BME280;3343;42.896;23.912;2022-09-28T10:54:56;95495.47;;;35.28;22.94
6615;BME280;3343;42.896;23.912;2022-09-28T10:57:27;95495.38;;;35.51;21.24
6615;BME280;3343;42.896;23.912;2022-09-28T10:59:54;95500.28;;;35.08;21.73
6615;BME280;3343;42.896;23.912;2022-09-28T11:02:23;95486.66;;;35.11;20.97
6615;BME280;3343;42.896;23.912;2022-09-28T11:04:53;95493.97;;;35.97;22.62
6615;BME280;3343;42.896;23.912;2022-09-28T11:07:25;95505.13;;;36.19;21.64
6615;BME280;3343;42.896;23.912;2022-09-28T11:09:55;95492.22;;;35.19;20.75
6615;BME280;3343;42.896;23.912;2022-09-28T11:12:24;95498.75;;;34.35;21.60
6615;BME280;3343;42.896;23.912;2022-09-28T11:14:55;95485.31;;;34.26;23.15
6615;BME280;3343;42.896;23.912;2022-09-28T11:17:26;95479.78;;;34.23;22.84
6615;BME280;3343;42.896;23.912;2022-09-28T11:19:54;95482.06;;;34.66;23.15
6615;BME280;3343;42.896;23.912;2022-09-28T11:22:27;95486.47;;;34.02;22.30
6615;BME280;3343;42.896;23.912;2022-09-28T11:25:28;95481.84;;;34.52;23.79
6615;BME280;3343;42.896;23.912;2022-09-28T11:27:58;95481.75;;;34.45;24.29
6615;BME280;3343;42.896;23.912;2022-09-28T11:30:29;95478.81;;;34.11;23.58
6615;BME280;3343;42.896;23.912;2022-09-28T11:33:01;95461.34;;;34.88;23.09
6615;BME280;3343;42.896;23.912;2022-09-28T11:35:41;95443.28;;;35.10;23.97
6615;BME280;3343;42.896;23.912;2022-09-28T11:38:24;95457.47;;;35.53;23.19
6615;BME280;3343;42.896;23.912;2022-09-28T11:41:17;95462.88;;;34.36;23.75
6615;BME280;3343;42.896;23.912;2022-09-28T11:44:04;95467.22;;;35.20;23.71
6615;BME280;3343;42.896;23.912;2022-09-28T11:46:41;95462.38;;;35.70;22.61
6615;BME280;3343;42.896;23.912;2022-09-28T11:49:21;95460.00;;;36.05;23.30
6615;BME280;3343;42.896;23.912;2022-09-28T11:51:53;95454.28;;;36.21;23.35
6615;BME280;3343;42.896;23.912;2022-09-28T11:54:27;95442.44;;;36.10;22.43
6615;BME280;3343;42.896;23.912;2022-09-28T11:56:58;95452.75;;;35.50;22.45
6615;BME280;3343;42.896;23.912;2022-09-28T11:59:30;95449.88;;;36.10;22.63
6615;BME280;3343;42.896;23.912;2022-09-28T12:02:03;95454.59;;;36.57;21.66
6615;BME280;3343;42.896;23.912;2022-09-28T12:04:39;95457.31;;;36.53;22.38
6615;BME280;3343;42.896;23.912;2022-09-28T12:07:10;95462.94;;;36.75;21.77
6615;BME280;3343;42.896;23.912;2022-09-28T12:09:44;95454.66;;;36.67;22.27
6615;BME280;3343;42.896;23.912;2022-09-28T12:12:19;95448.06;;;36.28;22.95
6615;BME280;3343;42.896;23.912;2022-09-28T12:14:52;95455.81;;;36.19;23.47
6615;BME280;3343;42.896;23.912;2022-09-28T12:17:22;95448.84;;;35.51;23.98
6615;BME280;3343;42.896;23.912;2022-09-28T12:19:54;95445.75;;;35.22;24.72
6615;BME280;3343;42.896;23.912;2022-09-28T12:22:28;95456.47;;;35.04;25.27
6615;BME280;3343;42.896;23.912;2022-09-28T12:25:00;95461.44;;;34.95;25.86
6615;BME280;3343;42.896;23.912;2022-09-28T12:27:34;95452.34;;;34.88;26.04
6615;BME280;3343;42.896;23.912;2022-09-28T12:30:10;95449.50;;;34.80;26.94
6615;BME280;3343;42.896;23.912;2022-09-28T12:32:41;95454.25;;;34.84;25.35
6615;BME280;3343;42.896;23.912;2022-09-28T12:35:13;95449.16;;;34.82;25.17
6615;BME280;3343;42.896;23.912;2022-09-28T12:37:53;95450.00;;;34.86;24.93
6615;BME280;3343;42.896;23.912;2022-09-28T12:40:34;95450.38;;;34.85;23.84
6615;BME280;3343;42.896;23.912;2022-09-28T12:43:13;95438.94;;;34.53;25.53
6615;BME280;3343;42.896;23.912;2022-09-28T12:46:03;95452.31;;;34.61;25.80
6615;BME280;3343;42.896;23.912;2022-09-28T12:48:58;95454.31;;;34.64;25.89
6615;BME280;3343;42.896;23.912;2022-09-28T12:51:40;95446.34;;;34.29;26.36
6615;BME280;3343;42.896;23.912;2022-09-28T12:54:21;95455.63;;;34.25;27.17
6615;BME280;3343;42.896;23.912;2022-09-28T12:56:56;95452.13;;;34.01;26.29
6615;BME280;3343;42.896;23.912;2022-09-28T12:59:30;95447.63;;;34.12;27.22
6615;BME280;3343;42.896;23.912;2022-09-28T13:02:34;95450.97;;;34.25;27.54
6615;BME280;3343;42.896;23.912;2022-09-28T13:05:15;95459.00;;;33.92;27.40
6615;BME280;3343;42.896;23.912;2022-09-28T13:07:48;95436.66;;;34.09;27.56
6615;BME280;3343;42.896;23.912;2022-09-28T13:10:25;95442.19;;;34.35;27.19
6615;BME280;3343;42.896;23.912;2022-09-28T13:13:10;95439.38;;;34.09;27.86
6615;BME280;3343;42.896;23.912;2022-09-28T13:15:46;95446.56;;;33.94;28.17
6615;BME280;3343;42.896;23.912;2022-09-28T13:18:22;95438.06;;;33.80;27.10
6615;BME280;3343;42.896;23.912;2022-09-28T13:21:07;95448.69;;;34.04;27.37
6615;BME280;3343;42.896;23.912;2022-09-28T13:23:38;95440.31;;;33.94;28.99
6615;BME280;3343;42.896;23.912;2022-09-28T13:26:12;95447.16;;;34.07;27.85
6615;BME280;3343;42.896;23.912;2022-09-28T13:28:42;95441.16;;;33.78;28.80
6615;BME280;3343;42.896;23.912;2022-09-28T13:31:17;95438.66;;;33.89;27.71
6615;BME280;3343;42.896;23.912;2022-09-28T13:33:46;95438.53;;;33.82;29.00
6615;BME280;3343;42.896;23.912;2022-09-28T13:36:35;95448.78;;;34.11;28.08